Arab, Missouri
Current Conditions -  °F | °C
As of 3:53 PM on Friday 24 Oct 2014 (Local Time) from KPOF Reporting Station
Haze Haze  
Wind Chill: 72°   Ceiling: Unl
Heat Index: 72°   Visibility: 6mi
Dew Point: 53°   Wind: 3mph
Humidity: 51%   Direction: 230°SW
Pressure: 30.06"   Gusts: NA
Location:  37.1241°N, 90.0834°W
Report Text: KPOF 242053Z AUTO 23003KT 6SM HZ CLR 22/12 A3006 RMK AO2 SLP178 T02220117 56017
Loading
Personal Weather Stations






























Interactive Weather Map
Tropical Storm Tracking
New forecast layout! Learn more

10-Day Weather Forecast

Advertisements
Track Severe Weather on mobile